createdAt,value
2018-12-20T00:02:08.730Z,0
2018-12-20T00:03:07.435Z,0
2018-12-20T00:06:46.007Z,0
2018-12-20T00:07:44.953Z,0
2018-12-20T00:08:43.445Z,0
2018-12-20T00:09:41.950Z,0
2018-12-20T00:10:40.553Z,0
2018-12-20T00:11:39.036Z,0
2018-12-20T00:12:37.582Z,0
2018-12-20T00:13:36.478Z,0
2018-12-20T00:14:35.240Z,0
2018-12-20T00:34:59.215Z,0
2018-12-20T00:35:57.810Z,0
2018-12-20T00:36:56.277Z,0
2018-12-20T00:37:55.063Z,0
2018-12-20T00:38:53.543Z,0
2018-12-20T00:39:52.052Z,0
2018-12-20T00:40:52.634Z,0
2018-12-20T00:41:51.191Z,0
2018-12-20T00:42:49.748Z,0
2018-12-20T00:43:48.392Z,0
2018-12-20T00:44:47.379Z,0
2018-12-20T00:45:45.873Z,0
2018-12-20T00:46:44.687Z,0
2018-12-20T00:47:43.147Z,0
2018-12-20T00:48:41.710Z,0
2018-12-20T00:51:39.965Z,0
2018-12-20T00:52:38.567Z,0
2018-12-20T00:55:44.938Z,0
2018-12-20T00:56:43.550Z,0
2018-12-20T00:57:42.143Z,0
2018-12-20T00:58:40.583Z,0
2018-12-20T00:59:39.134Z,0
2018-12-20T01:00:37.692Z,0
2018-12-20T01:01:36.217Z,0
2018-12-20T01:02:34.922Z,0
2018-12-20T01:03:33.526Z,0
2018-12-20T01:04:32.062Z,0
2018-12-20T01:05:30.782Z,0
2018-12-20T01:06:29.632Z,0
2018-12-20T01:07:28.106Z,0
2018-12-20T01:08:26.649Z,0
2018-12-20T01:09:25.236Z,0
2018-12-20T01:13:04.172Z,0
2018-12-20T01:14:02.880Z,0
2018-12-20T01:15:01.495Z,0
2018-12-20T01:15:59.898Z,0
2018-12-20T01:16:58.623Z,0
2018-12-20T01:19:39.027Z,0
2018-12-20T01:20:37.523Z,0
2018-12-20T01:21:36.246Z,0
2018-12-20T01:22:34.850Z,0
2018-12-20T01:41:20.336Z,0
2018-12-20T01:42:19.263Z,0
2018-12-20T01:43:17.755Z,0
2018-12-20T01:44:16.433Z,0
2018-12-20T01:45:15.072Z,0
2018-12-20T01:46:13.510Z,0
2018-12-20T01:47:12.057Z,0
2018-12-20T01:48:10.726Z,0
2018-12-20T01:49:09.550Z,0
2018-12-20T01:50:07.900Z,0
2018-12-20T01:51:06.535Z,0
2018-12-20T01:52:05.340Z,0
2018-12-20T01:53:03.926Z,0
2018-12-20T01:54:02.543Z,0
2018-12-20T01:55:00.992Z,0
2018-12-20T01:55:59.728Z,0
2018-12-20T01:56:58.259Z,0
2018-12-20T01:57:56.927Z,0
2018-12-20T01:58:55.508Z,0
2018-12-20T01:59:54.283Z,0
2018-12-20T02:00:52.947Z,0
2018-12-20T02:01:51.484Z,0
2018-12-20T02:02:50.086Z,0
2018-12-20T02:03:48.666Z,0
2018-12-20T02:04:47.023Z,0
2018-12-20T02:05:45.565Z,0
2018-12-20T02:06:44.121Z,0
2018-12-20T02:07:42.764Z,0
2018-12-20T02:08:41.415Z,0
2018-12-20T02:09:39.727Z,0
2018-12-20T02:10:38.631Z,0
2018-12-20T02:11:37.234Z,0
2018-12-20T02:12:35.796Z,0
2018-12-20T02:13:34.410Z,0
2018-12-20T02:14:33.155Z,0
2018-12-20T02:15:31.837Z,0
2018-12-20T02:18:11.869Z,0
2018-12-20T02:19:10.516Z,0
2018-12-20T02:20:09.453Z,0
2018-12-20T02:21:07.969Z,0
2018-12-20T02:22:06.693Z,0
2018-12-20T02:23:05.427Z,0
2018-12-20T02:24:03.859Z,0
2018-12-20T02:25:02.293Z,0
2018-12-20T02:26:00.830Z,0
2018-12-20T02:28:35.877Z,0
2018-12-20T02:29:34.470Z,0
2018-12-20T02:30:32.889Z,0
2018-12-20T02:31:31.572Z,0
2018-12-20T02:32:30.188Z,0
2018-12-20T02:33:28.760Z,0
2018-12-20T02:34:27.656Z,0
2018-12-20T02:35:26.268Z,0
2018-12-20T02:36:24.957Z,0
2018-12-20T02:37:23.855Z,0
2018-12-20T02:38:22.119Z,0
2018-12-20T02:39:20.763Z,0
2018-12-20T02:40:19.133Z,0
2018-12-20T02:41:17.841Z,0
2018-12-20T02:42:16.136Z,0
2018-12-20T02:43:14.869Z,0
2018-12-20T02:44:13.421Z,0
2018-12-20T02:45:11.781Z,0
2018-12-20T02:46:10.514Z,0
2018-12-20T02:47:09.087Z,0
2018-12-20T02:48:07.938Z,0
2018-12-20T02:49:06.550Z,0
2018-12-20T02:50:05.232Z,0
2018-12-20T02:51:03.784Z,0
2018-12-20T02:52:02.279Z,0
2018-12-20T02:53:00.875Z,0
2018-12-20T02:53:59.395Z,0
2018-12-20T02:54:58.157Z,0
2018-12-20T02:55:56.432Z,0
2018-12-20T02:56:54.948Z,0
2018-12-20T02:57:53.475Z,0
2018-12-20T02:58:52.052Z,0
2018-12-20T02:59:50.827Z,0
2018-12-20T03:00:49.466Z,0
2018-12-20T03:01:47.970Z,0
2018-12-20T03:02:46.708Z,0
2018-12-20T03:03:45.317Z,0
2018-12-20T03:04:44.096Z,0
2018-12-20T03:05:42.381Z,0
2018-12-20T03:06:41.036Z,0
2018-12-20T03:07:39.600Z,0
2018-12-20T03:08:38.409Z,0
2018-12-20T03:09:37.081Z,0
2018-12-20T03:10:35.755Z,0
2018-12-20T03:11:34.162Z,0
2018-12-20T03:12:32.809Z,0
2018-12-20T03:13:31.632Z,0
2018-12-20T03:14:30.183Z,0
2018-12-20T03:15:28.656Z,0
2018-12-20T03:16:27.277Z,0
2018-12-20T03:17:25.883Z,0
2018-12-20T03:18:24.537Z,0
2018-12-20T03:19:23.486Z,0
2018-12-20T03:20:21.833Z,0
2018-12-20T03:21:20.642Z,0
2018-12-20T03:22:19.255Z,0
2018-12-20T03:23:17.824Z,0
2018-12-20T03:24:16.556Z,0
2018-12-20T03:25:14.868Z,0
2018-12-20T03:26:13.520Z,0
2018-12-20T03:27:12.036Z,0
2018-12-20T03:28:10.737Z,0
2018-12-20T03:29:09.402Z,0
2018-12-20T03:30:07.945Z,0
2018-12-20T03:31:06.734Z,0
2018-12-20T03:32:05.333Z,0
2018-12-20T03:33:04.133Z,0
2018-12-20T03:34:02.450Z,0
2018-12-20T03:35:01.141Z,0
2018-12-20T03:35:59.967Z,0
2018-12-20T03:36:58.494Z,0
2018-12-20T03:37:57.239Z,0
2018-12-20T03:40:37.415Z,0
2018-12-20T03:41:35.958Z,0
2018-12-20T03:42:34.489Z,0
2018-12-20T03:43:32.995Z,0
2018-12-20T03:46:31.484Z,0
2018-12-20T03:47:29.929Z,0
2018-12-20T03:48:28.528Z,0
2018-12-20T03:49:27.075Z,0
2018-12-20T03:50:25.688Z,0
2018-12-20T03:51:24.119Z,0
2018-12-20T03:52:22.771Z,0
2018-12-20T03:53:21.199Z,0
2018-12-20T03:54:19.707Z,0
2018-12-20T03:55:18.378Z,0
2018-12-20T03:56:16.816Z,0
2018-12-20T03:57:15.296Z,0
2018-12-20T03:58:13.807Z,0
2018-12-20T03:59:12.496Z,0
2018-12-20T04:00:11.533Z,0
2018-12-20T04:01:09.797Z,0
2018-12-20T04:02:08.495Z,0
2018-12-20T04:03:07.257Z,0
2018-12-20T04:04:05.879Z,0
2018-12-20T04:05:04.366Z,0
2018-12-20T04:06:03.230Z,0
2018-12-20T04:07:01.586Z,0
2018-12-20T04:08:00.081Z,0
2018-12-20T04:08:58.805Z,0
2018-12-20T04:09:57.555Z,0
2018-12-20T04:10:56.052Z,0
2018-12-20T04:11:55.053Z,0
2018-12-20T04:12:53.402Z,0
2018-12-20T04:13:52.212Z,0
2018-12-20T04:14:50.797Z,0
2018-12-20T04:15:49.452Z,0
2018-12-20T04:16:47.620Z,0
2018-12-20T04:17:46.150Z,0
2018-12-20T04:18:44.872Z,0
2018-12-20T04:19:43.683Z,0
2018-12-20T04:20:42.067Z,0
2018-12-20T04:21:41.003Z,0
2018-12-20T04:22:39.546Z,0
2018-12-20T04:23:38.138Z,0
2018-12-20T04:24:36.745Z,0
2018-12-20T04:25:35.435Z,0
2018-12-20T04:26:33.698Z,0
2018-12-20T04:27:32.285Z,0
2018-12-20T04:28:30.969Z,0
2018-12-20T04:29:29.374Z,0
2018-12-20T04:30:27.970Z,0
2018-12-20T04:31:26.763Z,0
2018-12-20T04:32:25.260Z,0
2018-12-20T04:33:23.840Z,0
2018-12-20T04:34:22.638Z,0
2018-12-20T04:35:21.299Z,0
2018-12-20T04:36:19.939Z,0
2018-12-20T04:37:18.530Z,0
2018-12-20T04:38:17.124Z,0
2018-12-20T04:39:15.635Z,0
2018-12-20T04:40:14.214Z,0
2018-12-20T04:41:13.037Z,0
2018-12-20T04:42:11.508Z,0
2018-12-20T04:43:10.105Z,0
2018-12-20T04:44:08.923Z,0
2018-12-20T04:45:07.599Z,0
2018-12-20T04:46:08.930Z,0
2018-12-20T04:47:07.111Z,0
2018-12-20T04:48:05.771Z,0
2018-12-20T04:49:04.211Z,0
2018-12-20T04:50:03.070Z,0
2018-12-20T04:51:01.545Z,0
2018-12-20T04:52:00.197Z,0
2018-12-20T04:52:58.683Z,0
2018-12-20T04:53:57.188Z,0
2018-12-20T04:54:56.106Z,0
2018-12-20T04:55:54.496Z,0
2018-12-20T04:56:53.366Z,0
2018-12-20T04:57:51.817Z,0
2018-12-20T04:58:50.418Z,0
2018-12-20T04:59:49.171Z,0
2018-12-20T05:00:47.891Z,0
2018-12-20T05:01:46.388Z,0
2018-12-20T05:02:44.872Z,0
2018-12-20T05:03:43.513Z,0
2018-12-20T05:04:41.974Z,0
2018-12-20T05:05:40.645Z,0
2018-12-20T05:06:39.247Z,0
2018-12-20T05:07:38.128Z,0
2018-12-20T05:08:36.502Z,0
2018-12-20T05:09:35.251Z,0
2018-12-20T05:10:33.855Z,0
2018-12-20T05:11:32.350Z,0
2018-12-20T05:12:31.130Z,0
2018-12-20T05:13:29.415Z,0
2018-12-20T05:14:28.123Z,0
2018-12-20T05:15:26.461Z,0
2018-12-20T05:16:25.009Z,0
2018-12-20T05:17:23.556Z,0
2018-12-20T05:18:22.245Z,0
2018-12-20T05:19:21.138Z,0
2018-12-20T05:20:19.482Z,0
2018-12-20T05:21:18.120Z,0
2018-12-20T05:22:16.715Z,0
2018-12-20T05:23:15.418Z,0
2018-12-20T05:24:14.011Z,0
2018-12-20T05:25:12.573Z,0
2018-12-20T05:26:11.122Z,0
2018-12-20T05:27:09.675Z,0
2018-12-20T05:28:08.297Z,0
2018-12-20T05:29:07.011Z,0
2018-12-20T05:30:05.848Z,0
2018-12-20T05:31:04.282Z,0
2018-12-20T05:32:03.034Z,0
2018-12-20T05:33:01.608Z,0
2018-12-20T05:34:00.131Z,0
2018-12-20T05:34:58.747Z,0
2018-12-20T05:35:57.418Z,0
2018-12-20T05:36:56.033Z,0
2018-12-20T05:37:54.504Z,0
2018-12-20T05:38:53.701Z,0
2018-12-20T05:39:52.289Z,0
2018-12-20T05:40:50.898Z,0
2018-12-20T05:41:49.391Z,0
2018-12-20T05:42:48.129Z,0
2018-12-20T05:43:46.475Z,0
2018-12-20T05:47:25.602Z,0
2018-12-20T05:48:24.082Z,0
2018-12-20T05:49:22.564Z,0
2018-12-20T05:50:21.403Z,0
2018-12-20T05:51:19.940Z,0
2018-12-20T05:52:18.699Z,0
2018-12-20T05:53:17.380Z,0
2018-12-20T05:54:15.871Z,0
2018-12-20T05:55:14.594Z,0
2018-12-20T05:56:14.008Z,0
2018-12-20T05:57:12.693Z,0
2018-12-20T05:58:11.274Z,0
2018-12-20T05:59:09.872Z,0
2018-12-20T06:00:08.490Z,0
2018-12-20T06:01:07.198Z,0
2018-12-20T06:02:05.814Z,0
2018-12-20T06:03:04.340Z,0
2018-12-20T06:04:02.886Z,0
2018-12-20T06:05:01.484Z,0
2018-12-20T06:05:59.998Z,0
2018-12-20T06:06:58.885Z,0
2018-12-20T06:07:57.482Z,0
2018-12-20T06:08:56.038Z,0
2018-12-20T06:09:54.708Z,0
2018-12-20T06:10:53.406Z,0
2018-12-20T06:11:51.857Z,0
2018-12-20T06:12:50.714Z,0
2018-12-20T06:13:49.385Z,0
2018-12-20T06:17:28.028Z,0
2018-12-20T06:18:27.093Z,0
2018-12-20T06:19:25.904Z,0
2018-12-20T06:20:24.327Z,0
2018-12-20T06:21:23.355Z,0
2018-12-20T06:22:21.757Z,0
2018-12-20T06:23:20.221Z,0
2018-12-20T06:24:18.915Z,0
2018-12-20T06:25:17.666Z,0
2018-12-20T06:29:12.998Z,0
2018-12-20T06:30:11.562Z,0
2018-12-20T06:31:10.104Z,0
2018-12-20T06:32:08.797Z,0
2018-12-20T06:33:07.367Z,0
2018-12-20T06:34:05.952Z,0
2018-12-20T06:35:04.551Z,0
2018-12-20T06:36:03.136Z,0
2018-12-20T06:37:01.634Z,0
2018-12-20T06:38:00.327Z,0
2018-12-20T06:38:59.230Z,0
2018-12-20T06:39:57.799Z,0
2018-12-20T06:40:56.369Z,0
2018-12-20T06:41:54.996Z,0
2018-12-20T06:42:53.540Z,0
2018-12-20T06:43:52.169Z,0
2018-12-20T06:44:50.776Z,0
2018-12-20T06:45:49.310Z,0
2018-12-20T06:46:47.855Z,0
2018-12-20T06:47:46.474Z,0
2018-12-20T06:48:45.273Z,0
2018-12-20T06:49:43.843Z,0
2018-12-20T06:50:42.385Z,0
2018-12-20T06:51:41.216Z,0
2018-12-20T06:52:39.731Z,0
2018-12-20T06:53:38.314Z,0
2018-12-20T06:54:37.017Z,0
2018-12-20T06:55:35.596Z,0
2018-12-20T06:56:34.332Z,0
2018-12-20T06:57:32.966Z,0
2018-12-20T06:58:31.706Z,0
2018-12-20T07:01:12.024Z,0
2018-12-20T07:02:10.877Z,0
2018-12-20T07:03:09.591Z,0
2018-12-20T07:04:08.133Z,0
2018-12-20T07:05:06.776Z,0
2018-12-20T07:06:05.304Z,0
2018-12-20T07:07:03.852Z,0
2018-12-20T07:08:02.400Z,0
2018-12-20T07:09:00.935Z,0
2018-12-20T07:09:59.461Z,0
2018-12-20T07:10:58.010Z,0
2018-12-20T07:11:56.713Z,0
2018-12-20T07:12:55.577Z,0
2018-12-20T07:13:54.131Z,0
2018-12-20T07:14:52.780Z,0
2018-12-20T07:15:51.340Z,0
2018-12-20T07:16:49.912Z,0
2018-12-20T07:17:48.557Z,0
2018-12-20T07:18:47.080Z,0
2018-12-20T07:19:45.814Z,0
2018-12-20T07:20:44.416Z,0
2018-12-20T07:21:43.206Z,0
2018-12-20T07:22:41.766Z,5
2018-12-20T07:23:40.306Z,5
2018-12-20T07:24:39.076Z,5
2018-12-20T07:25:37.587Z,5
2018-12-20T07:26:36.136Z,5
2018-12-20T07:27:36.258Z,5
2018-12-20T07:28:33.218Z,5
2018-12-20T07:29:31.770Z,5
2018-12-20T07:30:30.309Z,5
2018-12-20T07:31:28.897Z,5
2018-12-20T07:32:27.522Z,5
2018-12-20T07:33:26.201Z,5
2018-12-20T07:37:05.379Z,5
2018-12-20T07:38:03.907Z,5
2018-12-20T07:39:02.618Z,5
2018-12-20T07:40:01.280Z,5
2018-12-20T07:40:59.897Z,10
2018-12-20T07:41:58.482Z,10
2018-12-20T07:42:57.275Z,10
2018-12-20T07:43:55.889Z,10
2018-12-20T07:44:54.432Z,10
2018-12-20T07:45:53.088Z,10
2018-12-20T07:46:51.694Z,10
2018-12-20T07:47:50.248Z,10
2018-12-20T07:48:49.090Z,10
2018-12-20T07:49:48.573Z,10
2018-12-20T07:50:47.373Z,10
2018-12-20T07:51:45.975Z,10
2018-12-20T07:52:44.545Z,10
2018-12-20T07:53:43.114Z,10
2018-12-20T07:54:41.720Z,10
2018-12-20T07:55:40.324Z,10
2018-12-20T07:56:39.174Z,10
2018-12-20T07:57:37.698Z,10
2018-12-20T07:58:36.304Z,10
2018-12-20T07:59:35.023Z,10
2018-12-20T08:00:33.713Z,10
2018-12-20T08:01:32.420Z,10
2018-12-20T08:02:31.228Z,10
2018-12-20T08:03:29.761Z,10
2018-12-20T08:04:28.324Z,15
2018-12-20T08:05:27.085Z,15
2018-12-20T08:06:25.689Z,15
2018-12-20T08:07:24.205Z,20
2018-12-20T08:08:22.722Z,20
2018-12-20T08:09:21.251Z,25
2018-12-20T08:10:19.799Z,25
2018-12-20T08:11:18.333Z,30
2018-12-20T08:12:16.914Z,30
2018-12-20T08:13:15.442Z,25
2018-12-20T08:14:13.989Z,25
2018-12-20T08:15:12.661Z,25
2018-12-20T08:16:11.416Z,25
2018-12-20T08:17:09.973Z,30
2018-12-20T08:18:08.560Z,30
2018-12-20T08:19:07.370Z,30
2018-12-20T08:20:05.920Z,30
2018-12-20T08:21:04.475Z,30
2018-12-20T08:22:03.049Z,30
2018-12-20T08:23:01.620Z,30
2018-12-20T08:24:00.223Z,30
2018-12-20T08:24:59.183Z,30
2018-12-20T08:25:57.603Z,30
2018-12-20T08:26:56.127Z,25
2018-12-20T08:27:54.940Z,20
2018-12-20T08:28:53.537Z,20
2018-12-20T08:29:52.107Z,15
2018-12-20T08:30:50.705Z,15
2018-12-20T08:31:49.218Z,15
2018-12-20T08:32:47.836Z,20
2018-12-20T08:33:46.473Z,20
2018-12-20T08:34:45.273Z,25
2018-12-20T08:35:44.044Z,25
2018-12-20T08:36:42.351Z,25
2018-12-20T08:37:41.070Z,30
2018-12-20T08:38:39.608Z,35
2018-12-20T08:39:38.158Z,35
2018-12-20T08:40:36.718Z,40
2018-12-20T08:43:17.282Z,45
2018-12-20T08:44:15.863Z,45
2018-12-20T08:45:14.396Z,45
2018-12-20T08:46:13.167Z,45
2018-12-20T08:47:11.721Z,45
2018-12-20T08:48:10.257Z,50
2018-12-20T08:49:08.822Z,50
2018-12-20T08:50:07.368Z,55
2018-12-20T08:51:05.934Z,55
2018-12-20T08:52:04.726Z,55
2018-12-20T08:53:03.388Z,55
2018-12-20T08:54:01.914Z,55
2018-12-20T08:55:00.524Z,55
2018-12-20T08:55:59.344Z,55
2018-12-20T08:56:57.853Z,55
2018-12-20T08:57:56.427Z,60
2018-12-20T08:58:54.907Z,60
2018-12-20T08:59:53.550Z,60
2018-12-20T09:00:52.073Z,60
2018-12-20T09:01:50.850Z,60
2018-12-20T09:02:49.554Z,60
2018-12-20T09:03:48.192Z,60
2018-12-20T09:04:46.978Z,60
2018-12-20T09:07:27.054Z,65
2018-12-20T09:08:25.628Z,65
2018-12-20T09:09:24.197Z,65
2018-12-20T09:10:22.936Z,65
2018-12-20T09:11:21.531Z,70
2018-12-20T09:12:20.044Z,70
2018-12-20T09:13:18.704Z,70
2018-12-20T09:14:17.469Z,70
2018-12-20T09:15:15.974Z,70
2018-12-20T09:36:04.188Z,80
2018-12-20T09:37:02.859Z,80
2018-12-20T09:38:01.529Z,80
2018-12-20T09:39:00.056Z,80
2018-12-20T09:39:58.579Z,80
2018-12-20T09:40:57.126Z,80
2018-12-20T09:41:55.623Z,80
2018-12-20T09:42:54.152Z,80
2018-12-20T09:43:52.991Z,80
2018-12-20T09:44:51.626Z,80
2018-12-20T09:45:50.142Z,80
2018-12-20T09:46:48.872Z,85
2018-12-20T09:47:47.528Z,90
2018-12-20T09:48:46.386Z,90
2018-12-20T09:49:44.713Z,90
2018-12-20T09:50:43.236Z,95
2018-12-20T09:51:41.837Z,95
2018-12-20T09:52:40.606Z,95
2018-12-20T09:53:39.398Z,95
2018-12-20T09:54:37.940Z,95
2018-12-20T09:55:36.466Z,85
2018-12-20T09:56:35.278Z,80
2018-12-20T09:57:33.806Z,80
2018-12-20T09:58:32.377Z,85
2018-12-20T09:59:30.901Z,85
2018-12-20T10:00:29.462Z,90
2018-12-20T10:01:28.048Z,90
2018-12-20T10:02:26.613Z,90
2018-12-20T10:03:25.286Z,90
2018-12-20T10:04:23.878Z,90
2018-12-20T10:05:22.595Z,90
2018-12-20T10:06:21.229Z,90
2018-12-20T10:07:19.797Z,85
2018-12-20T10:08:18.304Z,85
2018-12-20T10:09:16.907Z,85
2018-12-20T10:10:15.518Z,85
2018-12-20T10:11:14.094Z,80
2018-12-20T10:12:12.646Z,80
2018-12-20T10:13:11.184Z,75
2018-12-20T10:14:09.718Z,70
2018-12-20T10:15:08.426Z,65
2018-12-20T10:16:07.327Z,60
2018-12-20T10:17:05.857Z,60
2018-12-20T10:18:04.385Z,60
2018-12-20T10:19:03.146Z,55
2018-12-20T10:20:01.674Z,55
2018-12-20T10:21:00.211Z,50
2018-12-20T10:21:58.756Z,45
2018-12-20T10:22:57.279Z,45
2018-12-20T10:23:55.917Z,45
2018-12-20T10:24:54.607Z,45
2018-12-20T10:25:53.473Z,45
2018-12-20T10:26:51.992Z,45
2018-12-20T10:27:50.533Z,45
2018-12-20T10:28:49.305Z,45
2018-12-20T10:29:47.812Z,40
2018-12-20T10:30:46.363Z,45
2018-12-20T10:31:44.920Z,40
2018-12-20T10:32:43.427Z,40
2018-12-20T10:33:41.981Z,40
2018-12-20T10:34:40.769Z,40
2018-12-20T10:35:39.430Z,40
2018-12-20T10:36:37.970Z,40
2018-12-20T10:37:36.607Z,40
2018-12-20T10:38:35.251Z,40
2018-12-20T10:39:33.835Z,45
2018-12-20T10:40:32.376Z,45
2018-12-20T10:41:30.985Z,45
2018-12-20T10:42:29.546Z,50
2018-12-20T10:43:28.118Z,50
2018-12-20T10:44:26.694Z,50
2018-12-20T10:45:25.217Z,50
2018-12-20T10:46:23.794Z,50
2018-12-20T10:47:28.724Z,55
2018-12-20T10:48:21.369Z,55
2018-12-20T10:49:19.955Z,55
2018-12-20T10:50:18.557Z,55
2018-12-20T10:51:17.216Z,55
2018-12-20T10:52:15.747Z,60
2018-12-20T10:53:14.285Z,60
2018-12-20T10:54:12.810Z,55
2018-12-20T10:55:11.342Z,55
2018-12-20T10:56:09.869Z,50
2018-12-20T10:57:08.456Z,50
2018-12-20T10:58:07.010Z,45
2018-12-20T10:59:05.531Z,45
2018-12-20T11:00:04.105Z,45
2018-12-20T11:01:03.011Z,45
2018-12-20T11:02:01.764Z,40
2018-12-20T11:03:00.312Z,35
2018-12-20T11:03:58.900Z,35
2018-12-20T11:04:57.524Z,30
2018-12-20T11:05:56.091Z,35
2018-12-20T11:06:54.823Z,35
2018-12-20T11:07:53.527Z,35
2018-12-20T11:08:52.058Z,35
2018-12-20T11:09:50.657Z,40
2018-12-20T11:10:49.300Z,40
2018-12-20T11:11:47.821Z,40
2018-12-20T11:12:46.419Z,45
2018-12-20T11:13:45.104Z,45
2018-12-20T11:14:43.665Z,50
2018-12-20T11:15:42.391Z,55
2018-12-20T11:16:40.999Z,55
2018-12-20T11:17:39.654Z,55
2018-12-20T11:18:38.186Z,55
2018-12-20T11:19:36.835Z,55
2018-12-20T11:20:35.507Z,55
2018-12-20T11:23:33.709Z,50
2018-12-20T11:24:32.254Z,50
2018-12-20T11:25:31.151Z,50
2018-12-20T11:26:29.682Z,50
2018-12-20T11:27:28.251Z,50
2018-12-20T11:28:26.813Z,45
2018-12-20T11:29:25.316Z,50
2018-12-20T11:30:23.880Z,50
2018-12-20T11:31:22.497Z,50
2018-12-20T11:32:21.186Z,50
2018-12-20T11:33:19.797Z,50
2018-12-20T11:34:18.329Z,50
2018-12-20T11:36:58.712Z,40
2018-12-20T11:37:57.310Z,40
2018-12-20T11:38:55.906Z,35
2018-12-20T11:39:59.331Z,35
2018-12-20T11:40:54.624Z,35
2018-12-20T11:41:51.717Z,30
2018-12-20T11:42:50.288Z,30
2018-12-20T11:43:49.052Z,30
2018-12-20T11:44:47.682Z,30
2018-12-20T11:45:46.213Z,30
2018-12-20T11:46:44.927Z,30
2018-12-20T11:47:45.960Z,30
2018-12-20T11:48:41.986Z,35
2018-12-20T11:49:40.550Z,40
2018-12-20T11:50:39.087Z,40
2018-12-20T11:51:37.619Z,45
2018-12-20T11:54:17.618Z,60
2018-12-20T11:55:16.149Z,55
2018-12-20T11:56:14.861Z,65
2018-12-20T11:57:13.607Z,70
2018-12-20T11:58:12.135Z,75
2018-12-20T11:59:10.749Z,75
2018-12-20T12:00:09.592Z,75
2018-12-20T12:01:08.133Z,70
2018-12-20T12:02:06.776Z,65
2018-12-20T12:03:05.217Z,60
2018-12-20T12:04:03.764Z,60
2018-12-20T12:05:02.412Z,60
2018-12-20T12:06:01.329Z,60
2018-12-20T12:06:59.853Z,60
2018-12-20T12:07:58.376Z,60
2018-12-20T12:08:57.155Z,60
2018-12-20T12:09:55.664Z,60
2018-12-20T12:10:54.198Z,55
2018-12-20T12:19:13.900Z,60
2018-12-20T12:20:12.404Z,60
2018-12-20T12:21:11.289Z,60
2018-12-20T12:22:09.849Z,60
2018-12-20T12:25:16.152Z,60
2018-12-20T12:26:14.669Z,60
2018-12-20T12:27:13.437Z,65
2018-12-20T12:28:11.981Z,60
2018-12-20T12:29:10.512Z,60
2018-12-20T12:30:09.032Z,55
2018-12-20T12:31:07.690Z,55
2018-12-20T12:32:06.189Z,60
2018-12-20T12:33:04.925Z,65
2018-12-20T12:34:03.453Z,80
2018-12-20T12:35:01.987Z,85
2018-12-20T12:36:00.593Z,85
2018-12-20T12:36:59.300Z,75
2018-12-20T12:37:57.829Z,60
2018-12-20T12:38:56.394Z,65
2018-12-20T12:39:55.135Z,65
2018-12-20T12:40:53.645Z,60
2018-12-20T12:41:52.243Z,55
2018-12-20T12:42:50.775Z,55
2018-12-20T12:43:50.859Z,60
2018-12-20T12:44:47.883Z,60
2018-12-20T12:45:47.520Z,70
2018-12-20T12:46:45.427Z,75
2018-12-20T12:47:44.019Z,80
2018-12-20T12:48:42.750Z,75
2018-12-20T12:49:41.291Z,75
2018-12-20T12:50:39.870Z,70
2018-12-20T12:51:38.413Z,60
2018-12-20T12:52:36.931Z,60
2018-12-20T12:53:35.492Z,60
2018-12-20T12:54:34.011Z,65
2018-12-20T12:55:32.543Z,60
2018-12-20T12:56:31.081Z,70
2018-12-20T12:57:29.614Z,95
2018-12-20T12:58:28.149Z,110
2018-12-20T12:59:26.832Z,100
2018-12-20T13:00:25.602Z,80
2018-12-20T13:01:24.120Z,65
2018-12-20T13:02:22.710Z,55
2018-12-20T13:03:21.567Z,60
2018-12-20T13:04:20.065Z,60
2018-12-20T13:05:18.593Z,60
2018-12-20T13:06:17.111Z,60
2018-12-20T13:07:15.697Z,65
2018-12-20T13:08:14.220Z,70
2018-12-20T13:09:12.805Z,65
2018-12-20T13:10:11.331Z,60
2018-12-20T13:11:09.901Z,50
2018-12-20T13:12:08.422Z,45
2018-12-20T13:13:07.125Z,35
2018-12-20T13:14:05.724Z,35
2018-12-20T13:15:04.284Z,35
2018-12-20T13:16:02.934Z,40
2018-12-20T13:17:01.587Z,40
2018-12-20T13:18:00.118Z,30
2018-12-20T13:18:58.799Z,25
2018-12-20T13:19:57.387Z,25
2018-12-20T13:20:55.939Z,25
2018-12-20T13:21:54.522Z,25
2018-12-20T13:22:53.231Z,25
2018-12-20T13:23:51.779Z,30
2018-12-20T13:24:50.322Z,30
2018-12-20T13:25:49.159Z,30
2018-12-20T13:26:47.820Z,30
2018-12-20T13:27:46.328Z,30
2018-12-20T13:28:44.978Z,35
2018-12-20T13:29:43.530Z,40
2018-12-20T13:30:42.099Z,45
2018-12-20T13:31:40.786Z,50
2018-12-20T13:32:39.483Z,45
2018-12-20T13:33:38.083Z,35
2018-12-20T13:34:36.822Z,40
2018-12-20T13:35:36.264Z,40
2018-12-20T13:36:34.787Z,40
2018-12-20T13:37:33.552Z,40
2018-12-20T13:38:32.101Z,35
2018-12-20T13:39:30.658Z,40
2018-12-20T13:40:29.196Z,45
2018-12-20T13:41:27.771Z,45
2018-12-20T13:42:26.520Z,35
2018-12-20T13:43:25.367Z,35
2018-12-20T13:44:23.958Z,30
2018-12-20T13:45:22.556Z,30
2018-12-20T13:46:21.173Z,30
2018-12-20T13:47:19.719Z,35
2018-12-20T13:48:22.131Z,35
2018-12-20T13:49:16.799Z,30
2018-12-20T13:50:15.470Z,25
2018-12-20T13:51:13.957Z,20
2018-12-20T13:52:12.495Z,20
2018-12-20T13:53:11.184Z,25
2018-12-20T13:54:09.772Z,30
2018-12-20T13:55:08.318Z,35
2018-12-20T13:56:07.066Z,40
2018-12-20T13:57:05.746Z,40
2018-12-20T13:58:04.286Z,40
2018-12-20T13:59:03.461Z,40
2018-12-20T14:00:01.528Z,35
2018-12-20T14:01:00.047Z,35
2018-12-20T14:01:58.575Z,30
2018-12-20T14:02:57.101Z,35
2018-12-20T14:03:57.135Z,35
2018-12-20T14:04:54.197Z,35
2018-12-20T14:05:52.936Z,35
2018-12-20T14:06:51.702Z,35
2018-12-20T14:07:58.600Z,35
2018-12-20T14:08:48.801Z,35
2018-12-20T14:09:47.615Z,35
2018-12-20T14:10:46.180Z,30
2018-12-20T14:11:44.716Z,30
2018-12-20T14:12:43.293Z,30
2018-12-20T14:13:41.843Z,30
2018-12-20T14:14:40.539Z,30
2018-12-20T14:15:39.460Z,30
2018-12-20T14:16:38.039Z,30
2018-12-20T14:17:36.670Z,30
2018-12-20T14:18:35.290Z,30
2018-12-20T14:19:33.840Z,30
2018-12-20T14:20:32.381Z,30
2018-12-20T14:21:30.995Z,30
2018-12-20T14:22:29.560Z,30
2018-12-20T14:23:28.139Z,30
2018-12-20T14:24:27.061Z,25
2018-12-20T14:25:25.789Z,25
2018-12-20T14:26:24.383Z,25
2018-12-20T14:27:22.924Z,20
2018-12-20T14:28:21.526Z,20
2018-12-20T14:29:20.063Z,20
2018-12-20T14:30:18.637Z,20
2018-12-20T14:31:17.298Z,25
2018-12-20T14:32:15.866Z,25
2018-12-20T14:33:14.419Z,25
2018-12-20T14:34:13.208Z,25
2018-12-20T14:35:11.828Z,30
2018-12-20T14:36:10.335Z,30
2018-12-20T14:37:09.006Z,35
2018-12-20T14:38:07.578Z,40
2018-12-20T14:39:06.132Z,40
2018-12-20T14:40:04.628Z,35
2018-12-20T14:41:03.186Z,35
2018-12-20T14:42:01.819Z,35
2018-12-20T14:43:00.443Z,30
2018-12-20T14:43:59.315Z,30
2018-12-20T14:44:57.869Z,30
2018-12-20T14:45:56.463Z,25
2018-12-20T14:46:55.320Z,25
2018-12-20T14:47:53.900Z,20
2018-12-20T14:48:52.595Z,20
2018-12-20T14:49:51.436Z,20
2018-12-20T14:50:50.029Z,20
2018-12-20T14:51:48.731Z,25
2018-12-20T14:52:47.279Z,30
2018-12-20T14:53:45.827Z,30
2018-12-20T14:54:44.376Z,30
2018-12-20T14:55:42.889Z,30
2018-12-20T14:56:41.430Z,25
2018-12-20T14:57:39.975Z,20
2018-12-20T14:58:38.505Z,15
2018-12-20T14:59:37.246Z,15
2018-12-20T15:00:35.814Z,15
2018-12-20T15:01:34.409Z,10
2018-12-20T15:02:33.221Z,10
2018-12-20T15:03:31.776Z,10
2018-12-20T15:04:30.323Z,10
2018-12-20T15:05:28.930Z,10
2018-12-20T15:06:27.499Z,10
2018-12-20T15:07:26.117Z,10
2018-12-20T15:08:24.647Z,10
2018-12-20T15:09:23.157Z,10
2018-12-20T15:10:21.716Z,10
2018-12-20T15:11:20.264Z,10
2018-12-20T15:12:18.858Z,10
2018-12-20T15:13:17.426Z,10
2018-12-20T15:14:16.009Z,10
2018-12-20T15:15:14.585Z,5
2018-12-20T15:16:13.338Z,5
2018-12-20T15:17:11.896Z,5
2018-12-20T15:18:10.448Z,5
2018-12-20T15:19:09.407Z,5
2018-12-20T15:20:07.968Z,5
2018-12-20T15:21:06.619Z,5
2018-12-20T15:22:05.460Z,5
2018-12-20T15:23:04.013Z,5
2018-12-20T15:24:02.680Z,5
2018-12-20T15:25:01.325Z,5
2018-12-20T15:25:59.857Z,5
2018-12-20T15:26:58.428Z,5
2018-12-20T15:27:56.956Z,5
2018-12-20T15:28:55.510Z,5
2018-12-20T15:29:54.204Z,5
2018-12-20T15:30:52.855Z,5
2018-12-20T15:31:53.428Z,5
2018-12-20T15:32:50.099Z,0
2018-12-20T15:33:48.634Z,0
2018-12-20T15:34:47.507Z,0
2018-12-20T15:35:46.076Z,0
2018-12-20T15:36:44.642Z,0
2018-12-20T15:37:43.209Z,0
2018-12-20T15:38:41.877Z,0
2018-12-20T15:39:40.434Z,0
2018-12-20T15:40:39.139Z,0
2018-12-20T15:41:37.712Z,0
2018-12-20T15:42:36.250Z,0
2018-12-20T15:43:34.831Z,0
2018-12-20T15:44:33.597Z,0
2018-12-20T15:45:32.119Z,0
2018-12-20T15:48:06.115Z,0
2018-12-20T15:49:04.754Z,0
2018-12-20T15:50:03.354Z,0
2018-12-20T15:51:01.890Z,0
2018-12-20T15:52:00.504Z,0
2018-12-20T15:52:59.197Z,0
2018-12-20T15:53:57.753Z,0
2018-12-20T15:54:56.255Z,0
2018-12-20T15:55:55.056Z,0
2018-12-20T15:56:53.764Z,0
2018-12-20T15:57:52.344Z,0
2018-12-20T15:58:50.955Z,0
2018-12-20T15:59:49.476Z,0
2018-12-20T16:00:47.973Z,0